createdAt,value
2019-03-25T00:00:21.217Z,4.4
2019-03-25T00:01:21.298Z,4.9
2019-03-25T00:02:21.331Z,5
2019-03-25T00:03:21.386Z,5
2019-03-25T00:04:21.427Z,4.4
2019-03-25T00:05:21.461Z,4.6
2019-03-25T00:06:21.539Z,4.4
2019-03-25T00:07:21.609Z,4
2019-03-25T00:08:21.638Z,4.4
2019-03-25T00:09:21.675Z,4.5
2019-03-25T00:10:21.711Z,4
2019-03-25T00:11:21.753Z,3.9
2019-03-25T00:12:21.814Z,4.2
2019-03-25T00:13:21.841Z,4.2
2019-03-25T00:14:21.876Z,4.3
2019-03-25T00:15:21.890Z,4.8
2019-03-25T00:16:21.946Z,4.1
2019-03-25T00:17:21.978Z,4.3
2019-03-25T00:18:22.010Z,4
2019-03-25T00:19:22.097Z,4
2019-03-25T00:20:22.080Z,4.3
2019-03-25T00:21:22.130Z,4.3
2019-03-25T00:22:22.158Z,4.2
2019-03-25T00:23:22.182Z,3.9
2019-03-25T00:24:22.215Z,3.7
2019-03-25T00:25:22.276Z,4.2
2019-03-25T00:26:23.334Z,4.6
2019-03-25T00:27:22.359Z,4
2019-03-25T00:28:22.376Z,4.3
2019-03-25T00:29:22.406Z,4.1
2019-03-25T00:30:22.440Z,3.9
2019-03-25T00:31:22.521Z,4.4
2019-03-25T00:32:22.562Z,4.4
2019-03-25T00:33:22.586Z,4.3
2019-03-25T00:34:22.615Z,4.2
2019-03-25T00:35:22.657Z,4.5
2019-03-25T00:36:22.710Z,4
2019-03-25T00:37:22.774Z,4.4
2019-03-25T00:38:22.801Z,4.5
2019-03-25T00:39:22.837Z,4.6
2019-03-25T00:40:22.873Z,4.3
2019-03-25T00:41:22.951Z,4.5
2019-03-25T00:42:23.049Z,4.1
2019-03-25T00:43:23.086Z,4.2
2019-03-25T00:44:23.122Z,3.8
2019-03-25T00:45:23.164Z,4.7
2019-03-25T00:46:23.223Z,4.4
2019-03-25T00:47:24.206Z,5
2019-03-25T00:48:23.273Z,4.8
2019-03-25T00:49:23.322Z,4.9
2019-03-25T00:50:23.405Z,5
2019-03-25T00:51:23.497Z,4.3
2019-03-25T00:52:23.529Z,4.9
2019-03-25T00:53:23.574Z,5.2
2019-03-25T00:54:23.606Z,5.5
2019-03-25T00:55:24.633Z,5.2
2019-03-25T00:56:23.696Z,5.2
2019-03-25T00:57:23.744Z,5.1
2019-03-25T00:58:23.776Z,5.1
2019-03-25T00:59:23.810Z,5.6
2019-03-25T01:00:23.847Z,5.1
2019-03-25T01:01:23.919Z,5.2
2019-03-25T01:02:23.998Z,5.2
2019-03-25T01:03:23.999Z,5.2
2019-03-25T01:04:24.058Z,5.5
2019-03-25T01:05:24.106Z,5.8
2019-03-25T01:06:24.211Z,5.6
2019-03-25T01:07:24.258Z,5.7
2019-03-25T01:08:24.364Z,5.8
2019-03-25T01:09:24.414Z,5.3
2019-03-25T01:10:24.495Z,4.9
2019-03-25T01:11:24.557Z,5
2019-03-25T01:12:24.599Z,5.4
2019-03-25T01:13:24.662Z,4.9
2019-03-25T01:14:24.689Z,4.7
2019-03-25T01:15:24.750Z,4.8
2019-03-25T01:16:24.807Z,5
2019-03-25T01:17:24.825Z,5.6
2019-03-25T01:18:24.866Z,4.7
2019-03-25T01:19:24.906Z,5.2
2019-03-25T01:20:25.027Z,4.9
2019-03-25T01:21:24.991Z,4.9
2019-03-25T01:22:25.038Z,5
2019-03-25T01:23:25.076Z,5.1
2019-03-25T01:24:25.111Z,4.6
2019-03-25T01:25:25.153Z,4.7
2019-03-25T01:26:25.231Z,4.8
2019-03-25T01:27:25.276Z,4.7
2019-03-25T01:28:26.299Z,5.4
2019-03-25T01:29:25.406Z,4.7
2019-03-25T01:30:25.442Z,4.5
2019-03-25T01:31:25.513Z,5
2019-03-25T01:32:25.592Z,4.8
2019-03-25T01:33:25.619Z,5.5
2019-03-25T01:34:25.646Z,4.7
2019-03-25T01:35:25.678Z,4.9
2019-03-25T01:36:25.858Z,5.3
2019-03-25T01:37:25.785Z,5.1
2019-03-25T01:38:25.767Z,5
2019-03-25T01:39:25.806Z,5.4
2019-03-25T01:40:25.837Z,5.3
2019-03-25T01:41:25.937Z,5.7
2019-03-25T01:42:26.008Z,5.7
2019-03-25T01:43:26.047Z,5.6
2019-03-25T01:44:26.096Z,5.5
2019-03-25T01:45:26.153Z,5.5
2019-03-25T01:46:26.225Z,5.4
2019-03-25T01:47:26.251Z,5.9
2019-03-25T01:48:26.280Z,6.4
2019-03-25T01:49:26.306Z,5.9
2019-03-25T01:50:26.373Z,5.5
2019-03-25T01:51:26.488Z,5.6
2019-03-25T01:52:26.522Z,6
2019-03-25T01:53:26.569Z,5.9
2019-03-25T01:54:26.628Z,5.5
2019-03-25T01:55:26.653Z,5.6
2019-03-25T01:56:26.731Z,5.8
2019-03-25T01:57:26.767Z,5.9
2019-03-25T01:58:26.801Z,5.9
2019-03-25T01:59:26.831Z,5.6
2019-03-25T02:00:26.860Z,5.5
2019-03-25T02:01:26.969Z,6.3
2019-03-25T02:02:27.013Z,6.1
2019-03-25T02:03:27.058Z,6.2
2019-03-25T02:04:27.112Z,5.8
2019-03-25T02:05:27.135Z,5.9
2019-03-25T02:06:27.229Z,5.9
2019-03-25T02:07:27.275Z,6.5
2019-03-25T02:08:27.302Z,6.1
2019-03-25T02:09:27.322Z,6.1
2019-03-25T02:10:27.358Z,6.3
2019-03-25T02:11:27.428Z,6.2
2019-03-25T02:12:27.466Z,6.5
2019-03-25T02:13:27.502Z,6.2
2019-03-25T02:14:27.563Z,7
2019-03-25T02:15:27.619Z,6.1
2019-03-25T02:16:27.694Z,6.1
2019-03-25T02:17:27.737Z,6.3
2019-03-25T02:18:27.803Z,6.3
2019-03-25T02:19:27.839Z,6.5
2019-03-25T02:20:27.866Z,5.7
2019-03-25T02:21:27.929Z,6.1
2019-03-25T02:22:28.111Z,6.3
2019-03-25T02:23:28.073Z,6.3
2019-03-25T02:24:28.107Z,6.2
2019-03-25T02:25:28.110Z,6.5
2019-03-25T02:26:28.198Z,6.2
2019-03-25T02:27:28.229Z,6.1
2019-03-25T02:28:28.265Z,6.2
2019-03-25T02:29:28.286Z,6.6
2019-03-25T02:30:28.312Z,6.4
2019-03-25T02:31:28.377Z,6.6
2019-03-25T02:32:28.431Z,6.5
2019-03-25T02:33:28.463Z,7.1
2019-03-25T02:34:28.495Z,7.1
2019-03-25T02:35:28.562Z,6.8
2019-03-25T02:36:28.642Z,6.2
2019-03-25T02:37:28.665Z,6.7
2019-03-25T02:38:28.717Z,6.9
2019-03-25T02:39:28.744Z,6.7
2019-03-25T02:40:28.816Z,7.1
2019-03-25T02:41:28.913Z,6.9
2019-03-25T02:42:28.957Z,6.5
2019-03-25T02:43:29.008Z,6.7
2019-03-25T02:44:29.030Z,7
2019-03-25T02:45:29.067Z,7
2019-03-25T02:46:29.140Z,7.4
2019-03-25T02:47:29.185Z,6.7
2019-03-25T02:48:29.239Z,6.9
2019-03-25T02:49:29.275Z,7.1
2019-03-25T02:50:29.317Z,7.1
2019-03-25T02:51:29.405Z,7.6
2019-03-25T02:52:29.425Z,7.4
2019-03-25T02:53:29.473Z,7.2
2019-03-25T02:54:29.492Z,7.8
2019-03-25T02:55:41.114Z,7.4
2019-03-25T02:56:30.584Z,7.6
2019-03-25T02:57:29.651Z,7.9
2019-03-25T02:58:29.667Z,7.5
2019-03-25T02:59:29.701Z,7.8
2019-03-25T03:00:29.745Z,8.4
2019-03-25T03:01:29.815Z,7.7
2019-03-25T03:02:29.844Z,7.8
2019-03-25T03:03:29.876Z,7.9
2019-03-25T03:04:29.919Z,7.9
2019-03-25T03:05:29.943Z,7.9
2019-03-25T03:06:30.004Z,7.8
2019-03-25T03:07:30.084Z,8.1
2019-03-25T03:08:30.089Z,8.6
2019-03-25T03:09:30.128Z,7.9
2019-03-25T03:10:30.165Z,8.5
2019-03-25T03:11:30.236Z,8
2019-03-25T03:12:30.278Z,7.9
2019-03-25T03:13:30.310Z,8.2
2019-03-25T03:14:30.336Z,8.1
2019-03-25T03:15:30.377Z,8.1
2019-03-25T03:16:30.423Z,8
2019-03-25T03:17:30.519Z,7.9
2019-03-25T03:18:30.536Z,7.8
2019-03-25T03:19:30.558Z,8.4
2019-03-25T03:20:30.597Z,8
2019-03-25T03:21:30.620Z,7.5
2019-03-25T03:22:30.695Z,8
2019-03-25T03:23:30.727Z,8.4
2019-03-25T03:24:30.768Z,8.3
2019-03-25T03:25:30.807Z,8
2019-03-25T03:26:30.830Z,8.3
2019-03-25T03:27:30.885Z,8.3
2019-03-25T03:28:30.894Z,8.6
2019-03-25T03:29:30.922Z,8.3
2019-03-25T03:30:30.935Z,9
2019-03-25T03:31:30.969Z,8.5
2019-03-25T03:32:31.018Z,8.4
2019-03-25T03:33:31.039Z,8.7
2019-03-25T03:34:31.068Z,8.8
2019-03-25T03:35:31.123Z,8.2
2019-03-25T03:36:31.144Z,9.3
2019-03-25T03:37:31.258Z,10.4
2019-03-25T03:38:31.369Z,10.7
2019-03-25T03:39:31.472Z,11.2
2019-03-25T03:40:31.568Z,11.5
2019-03-25T03:41:31.674Z,11
2019-03-25T03:42:31.793Z,11.4
2019-03-25T03:43:31.884Z,11.7
2019-03-25T03:44:31.978Z,11.6
2019-03-25T03:45:32.083Z,11.1
2019-03-25T03:46:32.175Z,12
2019-03-25T03:47:32.297Z,11.2
2019-03-25T03:48:32.396Z,10.9
2019-03-25T03:49:32.497Z,11.8
2019-03-25T03:50:32.608Z,10.7
2019-03-25T03:51:32.655Z,10
2019-03-25T03:52:32.830Z,10
2019-03-25T03:53:32.933Z,10.2
2019-03-25T03:54:32.961Z,10
2019-03-25T03:55:33.059Z,10.4
2019-03-25T03:56:33.060Z,10.2
2019-03-25T03:57:33.181Z,10.2
2019-03-25T03:58:33.265Z,10.1
2019-03-25T03:59:33.368Z,10.3
2019-03-25T04:00:33.433Z,9.1
2019-03-25T04:01:33.489Z,9.3
2019-03-25T04:02:33.543Z,9.4
2019-03-25T04:03:33.570Z,9.9
2019-03-25T04:04:33.611Z,9.9
2019-03-25T04:05:33.631Z,10.1
2019-03-25T04:06:33.728Z,10.3
2019-03-25T04:07:33.845Z,10.6
2019-03-25T04:08:33.949Z,10.3
2019-03-25T04:09:33.961Z,9.5
2019-03-25T04:10:33.997Z,8.4
2019-03-25T04:11:34.029Z,6.9
2019-03-25T04:12:34.057Z,5.8
2019-03-25T04:13:34.046Z,5.7
2019-03-25T04:14:34.199Z,6.1
2019-03-25T04:15:34.229Z,6.5
2019-03-25T04:16:34.252Z,7.2
2019-03-25T04:17:34.298Z,5.6
2019-03-25T04:18:34.313Z,5.5
2019-03-25T04:19:34.480Z,5.4
2019-03-25T04:20:34.498Z,5.3
2019-03-25T04:21:34.486Z,4.9
2019-03-25T04:22:34.496Z,4.5
2019-03-25T04:23:35.490Z,5
2019-03-25T04:24:34.505Z,5.3
2019-03-25T04:25:34.501Z,4.9
2019-03-25T04:26:34.632Z,4.1
2019-03-25T04:27:34.822Z,4.5
2019-03-25T04:28:34.818Z,4.7
2019-03-25T04:29:34.810Z,4.2
2019-03-25T04:30:34.799Z,4
2019-03-25T04:31:34.807Z,4
2019-03-25T04:32:34.845Z,3.8
2019-03-25T04:33:34.849Z,3.8
2019-03-25T04:34:34.841Z,3.8
2019-03-25T04:35:34.848Z,4.5
2019-03-25T04:36:34.896Z,4.1
2019-03-25T04:37:34.905Z,4.3
2019-03-25T04:38:34.900Z,4.4
2019-03-25T04:39:34.900Z,4.3
2019-03-25T04:40:36.054Z,4.9
2019-03-25T04:41:35.048Z,4.5
2019-03-25T04:42:35.063Z,4.8
2019-03-25T04:43:35.052Z,5
2019-03-25T04:44:35.039Z,4.7
2019-03-25T04:45:35.191Z,4.4
2019-03-25T04:46:35.259Z,4.5
2019-03-25T04:47:35.261Z,4.3
2019-03-25T04:48:35.256Z,4.2
2019-03-25T04:49:35.239Z,3.9
2019-03-25T04:50:35.246Z,4.2
2019-03-25T04:51:35.232Z,3.6
2019-03-25T04:52:35.405Z,3.7
2019-03-25T04:53:35.402Z,3.6
2019-03-25T04:54:36.559Z,3.2
2019-03-25T04:55:35.562Z,3.4
2019-03-25T04:56:39.758Z,3.6
2019-03-25T04:57:36.860Z,3.1
2019-03-25T04:58:35.852Z,3.7
2019-03-25T04:59:36.011Z,3.6
2019-03-25T05:00:36.003Z,3.3
2019-03-25T05:01:36.039Z,3.3
2019-03-25T05:02:36.058Z,3.9
2019-03-25T05:03:36.060Z,3.6
2019-03-25T05:04:36.159Z,4
2019-03-25T05:05:36.413Z,4
2019-03-25T05:06:36.176Z,3.8
2019-03-25T05:07:36.300Z,4
2019-03-25T05:08:36.394Z,4.1
2019-03-25T05:09:36.493Z,4
2019-03-25T05:10:36.593Z,4.4
2019-03-25T05:11:36.698Z,4.3
2019-03-25T05:12:36.818Z,4.3
2019-03-25T05:13:36.923Z,4.3
2019-03-25T05:14:37.061Z,4.1
2019-03-25T05:15:37.124Z,4.8
2019-03-25T05:16:37.224Z,5.5
2019-03-25T05:17:37.338Z,5.9
2019-03-25T05:18:37.433Z,6.3
2019-03-25T05:19:37.542Z,6.1
2019-03-25T05:20:37.645Z,5.9
2019-03-25T05:21:37.744Z,5.8
2019-03-25T05:22:37.872Z,5.1
2019-03-25T05:23:38.011Z,4.3
2019-03-25T05:24:38.107Z,4.2
2019-03-25T05:25:38.224Z,4.2
2019-03-25T05:26:38.332Z,3.9
2019-03-25T05:27:39.452Z,4
2019-03-25T05:28:38.549Z,4.4
2019-03-25T05:29:38.652Z,3.5
2019-03-25T05:30:38.748Z,3.9
2019-03-25T05:31:38.858Z,3.8
2019-03-25T05:32:38.993Z,3.5
2019-03-25T05:33:39.092Z,3.4
2019-03-25T05:34:39.193Z,3.5
2019-03-25T05:35:39.354Z,3.4
2019-03-25T05:36:39.454Z,3
2019-03-25T05:37:39.577Z,3.2
2019-03-25T05:38:39.676Z,2.8
2019-03-25T05:39:39.806Z,3.6
2019-03-25T05:40:39.923Z,3
2019-03-25T05:41:40.047Z,3.2
2019-03-25T05:42:40.249Z,3.1
2019-03-25T05:43:40.227Z,2.6
2019-03-25T05:44:40.406Z,2.8
2019-03-25T05:45:40.363Z,2.9
2019-03-25T05:46:40.479Z,2.6
2019-03-25T05:47:40.615Z,2.4
2019-03-25T05:48:40.707Z,2.6
2019-03-25T05:49:40.808Z,2.3
2019-03-25T05:50:40.965Z,2.2
2019-03-25T05:51:41.109Z,2.5
2019-03-25T05:52:41.247Z,2.5
2019-03-25T05:53:41.288Z,2.2
2019-03-25T05:54:41.253Z,2.4
2019-03-25T05:55:41.346Z,2.7
2019-03-25T05:56:41.419Z,2.3
2019-03-25T05:57:41.601Z,2.3
2019-03-25T05:58:41.545Z,2.5
2019-03-25T05:59:41.711Z,2.5
2019-03-25T06:00:41.686Z,2.1
2019-03-25T06:01:44.042Z,2
2019-03-25T06:02:41.945Z,2.1
2019-03-25T06:03:42.061Z,2.6
2019-03-25T06:04:42.253Z,2.3
2019-03-25T06:05:42.237Z,2.3
2019-03-25T06:06:42.348Z,2.5
2019-03-25T06:07:42.389Z,2.3
2019-03-25T06:08:42.502Z,2.4
2019-03-25T06:09:42.582Z,2.4
2019-03-25T06:10:42.739Z,2.4
2019-03-25T06:11:42.828Z,1.9
2019-03-25T06:12:42.833Z,2.2
2019-03-25T06:13:42.947Z,2.5
2019-03-25T06:14:43.083Z,2.3
2019-03-25T06:15:43.162Z,2.6
2019-03-25T06:16:43.309Z,2.5
2019-03-25T06:17:43.451Z,2.2
2019-03-25T06:18:43.546Z,2.4
2019-03-25T06:19:43.591Z,2.4
2019-03-25T06:20:43.775Z,2.6
2019-03-25T06:21:43.770Z,2.2
2019-03-25T06:22:43.854Z,2.4
2019-03-25T06:23:43.973Z,1.9
2019-03-25T06:24:44.111Z,2.1
2019-03-25T06:25:44.203Z,2.6
2019-03-25T06:26:44.262Z,3.1
2019-03-25T06:27:44.300Z,2.2
2019-03-25T06:28:44.345Z,2.8
2019-03-25T06:29:44.438Z,2.5
2019-03-25T06:30:44.519Z,2.2
2019-03-25T06:31:44.588Z,2.5
2019-03-25T06:32:44.653Z,2.8
2019-03-25T06:33:44.690Z,2.5
2019-03-25T06:34:44.716Z,2.6
2019-03-25T06:35:44.758Z,2.7
2019-03-25T06:36:44.795Z,2.6
2019-03-25T06:37:44.847Z,3.1
2019-03-25T06:38:44.901Z,3.2
2019-03-25T06:39:44.918Z,2.8
2019-03-25T06:40:44.963Z,2.6
2019-03-25T06:41:45.995Z,3
2019-03-25T06:42:45.072Z,2.5
2019-03-25T06:43:45.129Z,3.4
2019-03-25T06:44:45.163Z,3.1
2019-03-25T06:45:45.234Z,3.1
2019-03-25T06:46:45.320Z,2.8
2019-03-25T06:47:45.395Z,3.7
2019-03-25T06:48:45.460Z,2.5
2019-03-25T06:49:45.505Z,3.5
2019-03-25T06:50:45.549Z,3.1
2019-03-25T06:51:45.596Z,3.2
2019-03-25T06:52:45.662Z,3.3
2019-03-25T06:53:45.699Z,3.2
2019-03-25T06:54:45.777Z,3.7
2019-03-25T06:55:45.816Z,3.4
2019-03-25T06:56:45.868Z,3.3
2019-03-25T06:57:45.922Z,3.2
2019-03-25T06:58:45.988Z,3.6
2019-03-25T06:59:46.028Z,3.7
2019-03-25T07:00:46.083Z,3.6
2019-03-25T07:01:46.131Z,3.4
2019-03-25T07:02:46.203Z,3.6
2019-03-25T07:03:46.261Z,3.9
2019-03-25T07:04:46.299Z,4.7
2019-03-25T07:05:46.349Z,4.4
2019-03-25T07:06:46.391Z,4.3
2019-03-25T07:07:46.451Z,4.3
2019-03-25T07:08:46.533Z,4.3
2019-03-25T07:09:46.575Z,4
2019-03-25T07:10:46.623Z,4.8
2019-03-25T07:11:46.715Z,4.4
2019-03-25T07:12:46.822Z,4.4
2019-03-25T07:13:46.893Z,4.4
2019-03-25T07:14:46.946Z,4.4
2019-03-25T07:15:46.991Z,4.5
2019-03-25T07:16:47.031Z,4.5
2019-03-25T07:17:47.141Z,4.7
2019-03-25T07:18:47.187Z,3.7
2019-03-25T07:19:47.235Z,4.9
2019-03-25T07:20:47.274Z,5.1
2019-03-25T07:21:47.354Z,4.9
2019-03-25T07:22:47.513Z,4.9
2019-03-25T07:23:47.555Z,4.6
2019-03-25T07:24:47.621Z,4.6
2019-03-25T07:25:47.703Z,4.5
2019-03-25T07:26:47.759Z,5.1
2019-03-25T07:27:48.464Z,5
2019-03-25T07:28:47.847Z,5.1
2019-03-25T07:29:47.913Z,5.5
2019-03-25T07:30:47.958Z,5.1
2019-03-25T07:31:48.010Z,5.4
2019-03-25T07:32:48.073Z,4.8
2019-03-25T07:33:48.122Z,5.4
2019-03-25T07:34:48.156Z,5.4
2019-03-25T07:35:48.220Z,5.9
2019-03-25T07:36:48.257Z,6.1
2019-03-25T07:37:48.319Z,5
2019-03-25T07:38:48.358Z,5.6
2019-03-25T07:39:48.409Z,5.7
2019-03-25T07:40:48.473Z,5.3
2019-03-25T07:41:48.511Z,5.4
2019-03-25T07:42:48.582Z,6
2019-03-25T07:43:48.619Z,6.1
2019-03-25T07:44:48.660Z,5.7
2019-03-25T07:45:48.706Z,5.7
2019-03-25T07:46:48.774Z,6
2019-03-25T07:47:48.874Z,6.5
2019-03-25T07:48:48.913Z,6.1
2019-03-25T07:49:48.951Z,5.7
2019-03-25T07:50:49.035Z,6.4
2019-03-25T07:51:49.095Z,5.8
2019-03-25T07:52:49.158Z,5.8
2019-03-25T07:53:51.009Z,5.5
2019-03-25T07:54:49.326Z,6.1
2019-03-25T07:55:49.337Z,5.5
2019-03-25T07:56:49.389Z,5.1
2019-03-25T07:57:49.436Z,5.8
2019-03-25T07:58:49.492Z,5.5
2019-03-25T07:59:49.549Z,5.5
2019-03-25T08:00:49.586Z,5.6
2019-03-25T08:01:49.627Z,6.1
2019-03-25T08:02:49.674Z,5.8
2019-03-25T08:03:49.721Z,5.6
2019-03-25T08:04:49.781Z,4.8
2019-03-25T08:05:49.803Z,5
2019-03-25T08:06:49.847Z,5.4
2019-03-25T08:07:49.926Z,4.5
2019-03-25T08:08:49.971Z,5
2019-03-25T08:09:52.484Z,4.7
2019-03-25T08:10:50.075Z,5.2
2019-03-25T08:11:50.136Z,5.7
2019-03-25T08:12:50.291Z,5.1
2019-03-25T08:13:50.323Z,4.5
2019-03-25T08:14:50.303Z,4.1
2019-03-25T08:15:50.332Z,4.7
2019-03-25T08:16:50.358Z,4.2
2019-03-25T08:17:50.467Z,4.3
2019-03-25T08:18:50.548Z,4.2
2019-03-25T08:19:50.583Z,4.2
2019-03-25T08:20:50.636Z,4.1
2019-03-25T08:21:50.668Z,4.4
2019-03-25T08:22:50.733Z,4.9
2019-03-25T08:23:50.800Z,4.8
2019-03-25T08:24:50.882Z,4.9
2019-03-25T08:25:50.942Z,4.9
2019-03-25T08:26:50.977Z,4.7
2019-03-25T08:27:59.345Z,4.2
2019-03-25T08:28:52.065Z,4.4
2019-03-25T08:29:51.096Z,3.8
2019-03-25T08:30:51.183Z,4.7
2019-03-25T08:31:51.224Z,3.9
2019-03-25T08:32:51.292Z,3.9
2019-03-25T08:33:51.366Z,4
2019-03-25T08:34:52.394Z,3.8
2019-03-25T08:35:51.451Z,4.4
2019-03-25T08:36:51.493Z,3.9
2019-03-25T08:37:51.558Z,3.8
2019-03-25T08:38:51.603Z,3.4
2019-03-25T08:39:51.658Z,3.7
2019-03-25T08:40:51.707Z,3.8
2019-03-25T08:41:51.751Z,2.8
2019-03-25T08:42:51.824Z,3.4
2019-03-25T08:43:51.915Z,3.2
2019-03-25T08:44:51.946Z,3.3
2019-03-25T08:45:51.993Z,3.1
2019-03-25T08:46:52.042Z,3
2019-03-25T08:47:52.106Z,3
2019-03-25T08:48:52.167Z,2.8
2019-03-25T08:49:52.219Z,2.5
2019-03-25T08:50:52.263Z,2.8
2019-03-25T08:51:52.312Z,2.4
2019-03-25T08:52:52.393Z,2.2
2019-03-25T08:53:52.429Z,2.1
2019-03-25T08:54:52.483Z,2
2019-03-25T08:55:53.519Z,2.1
2019-03-25T08:56:52.550Z,2.2
2019-03-25T08:57:52.609Z,2.1
2019-03-25T08:58:52.676Z,2
2019-03-25T08:59:52.721Z,2.2
2019-03-25T09:00:53.745Z,2.4
2019-03-25T09:01:52.777Z,2.4
2019-03-25T09:02:52.862Z,2.2
2019-03-25T09:03:52.899Z,2.5
2019-03-25T09:04:52.954Z,2.1
2019-03-25T09:05:52.994Z,2.5
2019-03-25T09:06:53.049Z,2.4
2019-03-25T09:07:53.116Z,2.3
2019-03-25T09:08:53.180Z,2.7
2019-03-25T09:09:53.266Z,2.1
2019-03-25T09:10:53.357Z,2.2
2019-03-25T09:11:53.424Z,2.4
2019-03-25T09:12:53.529Z,2.3
2019-03-25T09:13:53.576Z,2.3
2019-03-25T09:14:53.619Z,2.3
2019-03-25T09:15:53.704Z,2.2
2019-03-25T09:16:54.739Z,2.4
2019-03-25T09:17:54.804Z,2.5
2019-03-25T09:18:53.836Z,2.2
2019-03-25T09:19:53.872Z,2.5
2019-03-25T09:20:53.901Z,2.3
2019-03-25T09:21:53.991Z,2.5
2019-03-25T09:22:54.057Z,2
2019-03-25T09:23:54.134Z,2.6
2019-03-25T09:24:54.181Z,2.6
2019-03-25T09:25:54.256Z,2.8
2019-03-25T09:26:54.297Z,2.2
2019-03-25T09:27:54.376Z,3
2019-03-25T09:28:54.431Z,2.8
2019-03-25T09:29:54.480Z,2.8
2019-03-25T09:30:54.540Z,2.6
2019-03-25T09:31:54.614Z,2.7
2019-03-25T09:32:54.756Z,3.2
2019-03-25T09:33:54.796Z,2.7
2019-03-25T09:34:54.850Z,2.5
2019-03-25T09:35:54.993Z,2.6
2019-03-25T09:36:54.968Z,2.8
2019-03-25T09:37:55.030Z,2.6
2019-03-25T09:38:55.111Z,2.6
2019-03-25T09:39:55.148Z,3
2019-03-25T09:40:55.190Z,2.8
2019-03-25T09:41:55.235Z,3.2
2019-03-25T09:42:55.317Z,2.6
2019-03-25T09:43:55.366Z,2.6
2019-03-25T09:44:55.410Z,2.7
2019-03-25T09:45:55.459Z,2.4
2019-03-25T09:46:55.513Z,2.5
2019-03-25T09:47:55.584Z,2.2
2019-03-25T09:48:55.651Z,2
2019-03-25T09:49:55.679Z,2.4
2019-03-25T09:50:55.753Z,1.8
2019-03-25T09:51:55.788Z,2.3
2019-03-25T09:52:55.883Z,2
2019-03-25T09:53:55.933Z,2
2019-03-25T09:54:55.980Z,2.1
2019-03-25T09:55:56.066Z,1.9
2019-03-25T09:56:56.097Z,2.2
2019-03-25T09:57:56.162Z,1.9
2019-03-25T09:58:56.223Z,2.2
2019-03-25T09:59:56.262Z,2.2
2019-03-25T10:00:56.302Z,1.8
2019-03-25T10:01:56.344Z,1.8
2019-03-25T10:02:56.408Z,2.1
2019-03-25T10:03:56.444Z,2.4
2019-03-25T10:04:57.477Z,2
2019-03-25T10:05:56.563Z,2.3
2019-03-25T10:06:56.601Z,2.5
2019-03-25T10:07:56.657Z,2.1
2019-03-25T10:08:56.690Z,2.1
2019-03-25T10:09:56.731Z,2
2019-03-25T10:10:56.718Z,2.1
2019-03-25T10:11:56.875Z,2.5
2019-03-25T10:12:57.046Z,2.4
2019-03-25T10:13:57.097Z,2.5
2019-03-25T10:14:57.114Z,2.5
2019-03-25T10:15:57.224Z,2.8
2019-03-25T10:16:57.264Z,2.5
2019-03-25T10:17:57.328Z,2.2
2019-03-25T10:18:57.394Z,2.5
2019-03-25T10:19:57.437Z,2.3
2019-03-25T10:20:57.477Z,2.4
2019-03-25T10:21:57.527Z,2.1
2019-03-25T10:22:57.593Z,2.3
2019-03-25T10:23:57.705Z,2
2019-03-25T10:24:57.740Z,2.1
2019-03-25T10:25:57.811Z,2.1
2019-03-25T10:26:57.876Z,2.2
2019-03-25T10:27:57.947Z,2.2
2019-03-25T10:28:57.991Z,2.2
2019-03-25T10:29:58.028Z,2
2019-03-25T10:30:58.073Z,1.9
2019-03-25T10:31:58.114Z,2.1
2019-03-25T10:32:58.180Z,2.1
2019-03-25T10:33:58.242Z,1.9
2019-03-25T10:34:58.290Z,2.1
2019-03-25T10:35:58.349Z,2
2019-03-25T10:36:58.424Z,3.8
2019-03-25T10:37:58.577Z,2.7
2019-03-25T10:38:58.608Z,1.9
2019-03-25T10:39:58.654Z,3.9
2019-03-25T10:40:58.733Z,2.2
2019-03-25T10:41:58.796Z,2
2019-03-25T10:42:58.858Z,1.9
2019-03-25T10:43:58.904Z,2.4
2019-03-25T10:44:58.953Z,3.2
2019-03-25T10:45:59.023Z,3.7
2019-03-25T10:46:59.074Z,2.4
2019-03-25T10:47:59.202Z,1.3
2019-03-25T10:48:59.330Z,1.7
2019-03-25T10:49:59.453Z,1.6
2019-03-25T10:50:59.551Z,2
2019-03-25T10:51:59.605Z,1.7
2019-03-25T10:52:59.685Z,1.8
2019-03-25T10:53:59.734Z,1.5
2019-03-25T10:54:59.799Z,1.7
2019-03-25T10:55:59.874Z,3.2
2019-03-25T10:56:59.919Z,1.9
2019-03-25T10:57:59.983Z,5.9
2019-03-25T10:58:59.999Z,2.5
2019-03-25T11:00:00.043Z,1.9
2019-03-25T11:01:00.082Z,2.3
2019-03-25T11:02:00.127Z,2
2019-03-25T11:03:00.219Z,2.3
2019-03-25T11:04:00.293Z,2
2019-03-25T11:05:00.339Z,1.8
2019-03-25T11:06:00.481Z,1.8
2019-03-25T11:07:00.417Z,1.9
2019-03-25T11:08:00.596Z,2.5
2019-03-25T11:09:00.704Z,1.7
2019-03-25T11:10:00.738Z,2.8
2019-03-25T11:11:00.868Z,3.2
2019-03-25T11:12:00.914Z,3.6
2019-03-25T11:13:01.001Z,2.3
2019-03-25T11:14:01.120Z,4.5
2019-03-25T11:15:01.117Z,11.8
2019-03-25T11:16:01.164Z,6.2
2019-03-25T11:17:01.216Z,5.6
2019-03-25T11:18:01.291Z,3.5
2019-03-25T11:19:02.310Z,2.7
2019-03-25T11:20:01.356Z,2.7
2019-03-25T11:21:01.401Z,2.4
2019-03-25T11:22:01.477Z,2.1
2019-03-25T11:23:01.565Z,2
2019-03-25T11:24:01.606Z,2.2
2019-03-25T11:25:01.665Z,2.3
2019-03-25T11:26:01.695Z,4.6
2019-03-25T11:27:01.730Z,2.5
2019-03-25T11:28:01.794Z,2.5
2019-03-25T11:29:08.178Z,2.5
2019-03-25T11:30:02.884Z,2.6
2019-03-25T11:31:01.925Z,2.8
2019-03-25T11:32:01.949Z,3.8
2019-03-25T11:33:02.072Z,3.4
2019-03-25T11:34:02.138Z,3.8
2019-03-25T11:35:02.174Z,3
2019-03-25T11:36:03.249Z,3.4
2019-03-25T11:37:02.283Z,2.5
2019-03-25T11:38:02.350Z,2.8
2019-03-25T11:39:02.392Z,2.7
2019-03-25T11:40:02.435Z,3.3
2019-03-25T11:41:02.482Z,2.9
2019-03-25T11:42:02.542Z,3
2019-03-25T11:43:02.625Z,2.1
2019-03-25T11:44:02.671Z,2.8
2019-03-25T11:45:02.721Z,3.9
2019-03-25T11:46:02.762Z,4.1
2019-03-25T11:47:02.807Z,3.6
2019-03-25T11:48:02.915Z,3.2
2019-03-25T11:49:02.951Z,3.5
2019-03-25T11:50:03.024Z,2.9
2019-03-25T11:51:03.066Z,2.5
2019-03-25T11:52:03.102Z,2.2
2019-03-25T11:53:03.240Z,2.8
2019-03-25T11:54:03.280Z,2.7
2019-03-25T11:55:03.353Z,2.6
2019-03-25T11:56:03.397Z,2.8
2019-03-25T11:57:03.463Z,2.7
2019-03-25T11:58:03.565Z,3.4
2019-03-25T11:59:03.601Z,3.4
2019-03-25T12:00:03.634Z,2.6
2019-03-25T12:01:03.675Z,2.8
2019-03-25T12:02:03.723Z,3.2
2019-03-25T12:03:03.824Z,2.5
2019-03-25T12:04:03.912Z,2.5
2019-03-25T12:05:03.947Z,3.4
2019-03-25T12:06:04.055Z,3
2019-03-25T12:07:04.098Z,4.2
2019-03-25T12:08:04.181Z,3.3
2019-03-25T12:09:04.220Z,4.6
2019-03-25T12:10:05.329Z,3.5
2019-03-25T12:11:04.375Z,4
2019-03-25T12:12:04.473Z,3
2019-03-25T12:13:04.604Z,2.6
2019-03-25T12:14:04.692Z,3.5
2019-03-25T12:15:04.729Z,2
2019-03-25T12:16:04.822Z,2.5
2019-03-25T12:17:04.917Z,9.4
2019-03-25T12:18:05.084Z,8.5
2019-03-25T12:19:05.044Z,6.2
2019-03-25T12:20:05.118Z,8.2
2019-03-25T12:21:05.235Z,5.7
2019-03-25T12:22:05.208Z,12.9
2019-03-25T12:23:05.394Z,12.3
2019-03-25T12:24:05.389Z,13.1
2019-03-25T12:25:05.418Z,5.3
2019-03-25T12:26:05.496Z,6
2019-03-25T12:27:05.580Z,9.8
2019-03-25T12:28:05.715Z,7.3
2019-03-25T12:29:05.768Z,4.9
2019-03-25T12:30:05.777Z,10.3
2019-03-25T12:31:05.861Z,5.7
2019-03-25T12:32:05.928Z,8.5
2019-03-25T12:33:06.057Z,7.3
2019-03-25T12:34:06.207Z,6.6
2019-03-25T12:35:06.303Z,4.5
2019-03-25T12:36:06.276Z,5.3
2019-03-25T12:37:06.364Z,6.4
2019-03-25T12:38:06.507Z,6.7
2019-03-25T12:39:06.572Z,4.6
2019-03-25T12:40:07.825Z,6.4
2019-03-25T12:41:06.702Z,4.5
2019-03-25T12:42:06.829Z,5.6
2019-03-25T12:43:06.940Z,4.3
2019-03-25T12:44:07.039Z,5.5
2019-03-25T12:45:07.127Z,6.1
2019-03-25T12:46:07.217Z,5
2019-03-25T12:47:07.296Z,5
2019-03-25T12:48:07.352Z,3.4
2019-03-25T12:49:07.404Z,3.9
2019-03-25T12:50:07.606Z,6.3
2019-03-25T12:51:07.510Z,6.8
2019-03-25T12:52:07.557Z,4.9
2019-03-25T12:53:07.632Z,3.8
2019-03-25T12:54:07.702Z,4.4
2019-03-25T12:55:07.765Z,6
2019-03-25T12:56:07.782Z,5.4
2019-03-25T12:57:07.846Z,6.2
2019-03-25T12:58:07.929Z,4.6
2019-03-25T12:59:07.970Z,8.3
2019-03-25T13:00:08.015Z,12.9
2019-03-25T13:01:08.066Z,8.5
2019-03-25T13:02:08.104Z,8.3
2019-03-25T13:03:08.199Z,5
2019-03-25T13:04:08.188Z,3.8
2019-03-25T13:05:08.344Z,2.7
2019-03-25T13:06:08.410Z,2.5
2019-03-25T13:07:08.521Z,2.2
2019-03-25T13:08:08.605Z,1.9
2019-03-25T13:09:08.647Z,1.9
2019-03-25T13:10:08.707Z,2.2
2019-03-25T13:11:08.735Z,2
2019-03-25T13:12:08.780Z,1.6
2019-03-25T13:13:09.154Z,1.5
2019-03-25T13:14:08.859Z,1.6
2019-03-25T13:15:08.912Z,1.5
2019-03-25T13:16:08.991Z,1.2
2019-03-25T13:17:09.036Z,1.3
2019-03-25T13:18:09.098Z,1.2
2019-03-25T13:19:09.141Z,2.3
2019-03-25T13:20:09.177Z,2.6
2019-03-25T13:21:09.207Z,2.4
2019-03-25T13:22:09.262Z,2.3
2019-03-25T13:23:09.338Z,2.2
2019-03-25T13:24:09.390Z,2.3
2019-03-25T13:25:09.433Z,2.5
2019-03-25T13:26:09.482Z,2.9
2019-03-25T13:27:09.524Z,2
2019-03-25T13:28:09.599Z,2.8
2019-03-25T13:29:09.636Z,2.4
2019-03-25T13:30:09.681Z,2.1
2019-03-25T13:31:09.728Z,1.9
2019-03-25T13:32:09.850Z,2.1
2019-03-25T13:33:09.913Z,2.2
2019-03-25T13:34:10.007Z,2.4
2019-03-25T13:35:10.051Z,1.9
2019-03-25T13:36:10.092Z,2.4
2019-03-25T13:37:10.137Z,2.5
2019-03-25T13:38:10.218Z,2.6
2019-03-25T13:39:10.264Z,2.6
2019-03-25T13:40:10.301Z,2.5
2019-03-25T13:41:10.358Z,2.3
2019-03-25T13:42:10.424Z,2.5
2019-03-25T13:43:10.504Z,2.5
2019-03-25T13:44:10.593Z,2.6
2019-03-25T13:45:10.638Z,2.1
2019-03-25T13:46:10.675Z,2.3
2019-03-25T13:47:10.713Z,3.3
2019-03-25T13:48:10.761Z,3.9
2019-03-25T13:49:10.864Z,2.3
2019-03-25T13:50:10.940Z,2.9
2019-03-25T13:51:11.015Z,2.4